createdAt,value
2017-06-21T00:00:23.284Z,967.51
2017-06-21T00:01:23.285Z,967.51
2017-06-21T00:02:23.284Z,967.53
2017-06-21T00:03:23.284Z,967.52
2017-06-21T00:04:23.284Z,967.52
2017-06-21T00:05:23.283Z,967.55
2017-06-21T00:06:23.284Z,967.49
2017-06-21T00:07:23.285Z,967.5
2017-06-21T00:08:23.283Z,967.5
2017-06-21T00:09:23.285Z,967.51
2017-06-21T00:10:23.284Z,967.51
2017-06-21T00:11:23.283Z,967.57
2017-06-21T00:12:23.284Z,967.55
2017-06-21T00:13:23.284Z,967.61
2017-06-21T00:14:23.282Z,967.61
2017-06-21T00:15:23.283Z,967.62
2017-06-21T00:16:23.283Z,967.62
2017-06-21T00:17:23.283Z,967.62
2017-06-21T00:18:23.283Z,967.62
2017-06-21T00:19:23.283Z,967.59
2017-06-21T00:20:23.282Z,967.59
2017-06-21T00:21:23.283Z,967.58
2017-06-21T00:22:23.282Z,967.59
2017-06-21T00:23:23.284Z,967.6
2017-06-21T00:24:23.281Z,967.59
2017-06-21T00:25:23.281Z,967.63
2017-06-21T00:26:23.282Z,967.62
2017-06-21T00:27:23.282Z,967.63
2017-06-21T00:28:23.281Z,967.61
2017-06-21T00:29:23.281Z,967.64
2017-06-21T00:30:23.280Z,967.63
2017-06-21T00:31:23.281Z,967.62
2017-06-21T00:32:23.280Z,967.6
2017-06-21T00:33:23.279Z,967.6
2017-06-21T00:34:23.279Z,967.61
2017-06-21T00:35:23.279Z,967.62
2017-06-21T00:36:23.279Z,967.56
2017-06-21T00:37:23.281Z,967.56
2017-06-21T00:38:23.281Z,967.56
2017-06-21T00:39:23.280Z,967.57
2017-06-21T00:40:23.280Z,967.6
2017-06-21T00:41:23.278Z,967.54
2017-06-21T00:42:23.279Z,967.55
2017-06-21T00:43:23.278Z,967.57
2017-06-21T00:44:23.278Z,967.56
2017-06-21T00:45:23.279Z,967.58
2017-06-21T00:46:23.279Z,967.54
2017-06-21T00:47:23.277Z,967.59
2017-06-21T00:48:23.277Z,967.52
2017-06-21T00:49:23.277Z,967.56
2017-06-21T00:50:23.277Z,967.51
2017-06-21T00:51:23.277Z,967.58
2017-06-21T00:52:23.276Z,967.55
2017-06-21T00:53:23.277Z,967.61
2017-06-21T00:54:23.275Z,967.6
2017-06-21T00:55:23.275Z,967.6
2017-06-21T00:56:23.277Z,967.59
2017-06-21T00:57:23.276Z,967.6
2017-06-21T00:58:23.276Z,967.62
2017-06-21T00:59:23.278Z,967.58
2017-06-21T01:00:23.277Z,967.58
2017-06-21T01:01:23.273Z,967.58
2017-06-21T01:02:23.273Z,967.57
2017-06-21T01:03:23.273Z,967.6
2017-06-21T01:04:23.275Z,967.62
2017-06-21T01:05:23.274Z,967.55
2017-06-21T01:06:23.273Z,967.61
2017-06-21T01:07:23.273Z,967.55
2017-06-21T01:08:23.274Z,967.56
2017-06-21T01:09:23.274Z,967.55
2017-06-21T01:10:23.274Z,967.54
2017-06-21T01:11:23.273Z,967.53
2017-06-21T01:12:23.272Z,967.56
2017-06-21T01:13:23.273Z,967.5
2017-06-21T01:14:23.272Z,967.52
2017-06-21T01:15:23.273Z,967.54
2017-06-21T01:16:23.272Z,967.52
2017-06-21T01:17:23.271Z,967.54
2017-06-21T01:18:23.271Z,967.49
2017-06-21T01:19:23.270Z,967.53
2017-06-21T01:20:23.270Z,967.53
2017-06-21T01:21:23.270Z,967.51
2017-06-21T01:22:23.271Z,967.49
2017-06-21T01:23:23.270Z,967.48
2017-06-21T01:24:23.269Z,967.44
2017-06-21T01:25:23.269Z,967.46
2017-06-21T01:26:23.268Z,967.45
2017-06-21T01:27:23.267Z,967.45
2017-06-21T01:28:23.268Z,967.46
2017-06-21T01:29:23.267Z,967.47
2017-06-21T01:30:23.268Z,967.48
2017-06-21T01:31:23.268Z,967.49
2017-06-21T01:32:23.269Z,967.5
2017-06-21T01:33:23.268Z,967.5
2017-06-21T01:34:23.266Z,967.51
2017-06-21T01:35:23.265Z,967.49
2017-06-21T01:36:23.265Z,967.49
2017-06-21T01:37:23.268Z,967.47
2017-06-21T01:38:23.265Z,967.46
2017-06-21T01:39:23.265Z,967.45
2017-06-21T01:40:23.265Z,967.47
2017-06-21T01:41:23.265Z,967.44
2017-06-21T01:42:23.266Z,967.41
2017-06-21T01:43:23.266Z,967.4
2017-06-21T01:44:23.265Z,967.41
2017-06-21T01:45:23.264Z,967.33
2017-06-21T01:46:23.264Z,967.33
2017-06-21T01:47:23.264Z,967.31
2017-06-21T01:48:23.263Z,967.3
2017-06-21T01:49:23.262Z,967.31
2017-06-21T01:50:23.260Z,967.3
2017-06-21T01:51:23.262Z,967.3
2017-06-21T01:52:23.261Z,967.28
2017-06-21T01:53:23.260Z,967.31
2017-06-21T01:54:23.261Z,967.25
2017-06-21T01:55:23.260Z,967.27
2017-06-21T01:56:23.258Z,967.26
2017-06-21T01:57:23.259Z,967.29
2017-06-21T01:58:23.260Z,967.28
2017-06-21T01:59:23.260Z,967.28
2017-06-21T02:00:23.262Z,967.24
2017-06-21T02:01:23.260Z,967.25
2017-06-21T02:02:23.259Z,967.25
2017-06-21T02:03:23.255Z,967.24
2017-06-21T02:04:23.257Z,967.25
2017-06-21T02:05:23.256Z,967.24
2017-06-21T02:06:23.256Z,967.22
2017-06-21T02:07:23.256Z,967.19
2017-06-21T02:08:23.255Z,967.21
2017-06-21T02:09:23.255Z,967.2
2017-06-21T02:10:23.256Z,967.18
2017-06-21T02:11:23.255Z,967.22
2017-06-21T02:12:23.256Z,967.2
2017-06-21T02:13:23.254Z,967.18
2017-06-21T02:14:23.255Z,967.19
2017-06-21T02:15:23.252Z,967.17
2017-06-21T02:16:23.254Z,967.14
2017-06-21T02:17:23.253Z,967.12
2017-06-21T02:18:23.251Z,967.13
2017-06-21T02:19:23.252Z,967.15
2017-06-21T02:20:23.251Z,967.16
2017-06-21T02:21:23.251Z,967.15
2017-06-21T02:22:23.248Z,967.16
2017-06-21T02:23:23.249Z,967.18
2017-06-21T02:24:23.251Z,967.14
2017-06-21T02:25:23.248Z,967.14
2017-06-21T02:26:23.248Z,967.17
2017-06-21T02:27:23.249Z,967.18
2017-06-21T02:28:23.249Z,967.14
2017-06-21T02:29:23.248Z,967.14
2017-06-21T02:30:23.248Z,967.12
2017-06-21T02:31:23.248Z,967.13
2017-06-21T02:32:23.248Z,967.12
2017-06-21T02:33:23.245Z,967.17
2017-06-21T02:34:23.245Z,967.17
2017-06-21T02:35:23.246Z,967.14
2017-06-21T02:36:23.243Z,967.13
2017-06-21T02:37:23.244Z,967.15
2017-06-21T02:38:23.244Z,967.13
2017-06-21T02:39:23.244Z,967.13
2017-06-21T02:40:23.243Z,967.14
2017-06-21T02:41:23.244Z,967.19
2017-06-21T02:42:23.244Z,967.15
2017-06-21T02:43:23.242Z,967.12
2017-06-21T02:44:23.242Z,967.11
2017-06-21T02:45:23.241Z,967.1
2017-06-21T02:46:23.248Z,967.09
2017-06-21T02:47:23.241Z,967.08
2017-06-21T02:48:23.240Z,967.09
2017-06-21T02:49:23.240Z,967.1
2017-06-21T02:50:23.241Z,967.14
2017-06-21T02:51:23.241Z,967.14
2017-06-21T02:52:23.241Z,967.14
2017-06-21T02:53:23.239Z,967.15
2017-06-21T02:54:23.238Z,967.16
2017-06-21T02:55:23.237Z,967.14
2017-06-21T02:56:23.237Z,967.17
2017-06-21T02:57:23.238Z,967.17
2017-06-21T02:58:23.235Z,967.2
2017-06-21T02:59:23.236Z,967.18
2017-06-21T03:00:23.235Z,967.16
2017-06-21T03:01:23.237Z,967.17
2017-06-21T03:02:23.234Z,967.2
2017-06-21T03:03:23.235Z,967.21
2017-06-21T03:04:23.234Z,967.2
2017-06-21T03:05:23.232Z,967.2
2017-06-21T03:06:23.232Z,967.18
2017-06-21T03:07:23.232Z,967.17
2017-06-21T03:08:23.233Z,967.18
2017-06-21T03:09:23.232Z,967.16
2017-06-21T03:10:23.232Z,967.16
2017-06-21T03:11:23.231Z,967.17
2017-06-21T03:12:23.261Z,967.18
2017-06-21T03:13:23.227Z,967.17
2017-06-21T03:14:23.228Z,967.21
2017-06-21T03:15:23.228Z,967.16
2017-06-21T03:16:23.227Z,967.2
2017-06-21T03:17:23.228Z,967.2
2017-06-21T03:18:23.227Z,967.22
2017-06-21T03:19:23.230Z,967.21
2017-06-21T03:20:23.227Z,967.22
2017-06-21T03:21:23.226Z,967.24
2017-06-21T03:22:23.227Z,967.25
2017-06-21T03:23:23.226Z,967.26
2017-06-21T03:24:23.224Z,967.24
2017-06-21T03:25:23.224Z,967.21
2017-06-21T03:26:23.223Z,967.2
2017-06-21T03:27:23.222Z,967.22
2017-06-21T03:28:23.222Z,967.18
2017-06-21T03:29:23.222Z,967.21
2017-06-21T03:30:23.222Z,967.26
2017-06-21T03:31:23.222Z,967.24
2017-06-21T03:32:23.220Z,967.29
2017-06-21T03:33:23.220Z,967.3
2017-06-21T03:34:23.219Z,967.32
2017-06-21T03:35:23.220Z,967.32
2017-06-21T03:36:23.216Z,967.29
2017-06-21T03:37:23.216Z,967.33
2017-06-21T03:38:23.216Z,967.34
2017-06-21T03:39:23.217Z,967.38
2017-06-21T03:40:23.215Z,967.33
2017-06-21T03:41:23.216Z,967.38
2017-06-21T03:42:23.214Z,967.34
2017-06-21T03:43:23.215Z,967.4
2017-06-21T03:44:23.213Z,967.4
2017-06-21T03:45:23.215Z,967.36
2017-06-21T03:46:23.212Z,967.37
2017-06-21T03:47:23.211Z,967.33
2017-06-21T03:48:23.215Z,967.37
2017-06-21T03:49:23.212Z,967.38
2017-06-21T03:50:23.212Z,967.36
2017-06-21T03:51:23.211Z,967.35
2017-06-21T03:52:23.212Z,967.4
2017-06-21T03:53:23.210Z,967.35
2017-06-21T03:54:23.208Z,967.36
2017-06-21T03:55:23.209Z,967.37
2017-06-21T03:56:23.208Z,967.38
2017-06-21T03:57:23.207Z,967.4
2017-06-21T03:58:23.207Z,967.4
2017-06-21T03:59:23.206Z,967.45
2017-06-21T04:00:23.207Z,967.47
2017-06-21T04:01:23.207Z,967.44
2017-06-21T04:02:23.205Z,967.46
2017-06-21T04:03:23.208Z,967.46
2017-06-21T04:04:23.204Z,967.5
2017-06-21T04:05:23.204Z,967.5
2017-06-21T04:06:23.205Z,967.51
2017-06-21T04:07:23.203Z,967.51
2017-06-21T04:08:23.203Z,967.55
2017-06-21T04:09:23.203Z,967.55
2017-06-21T04:10:23.202Z,967.55
2017-06-21T04:11:23.201Z,967.52
2017-06-21T04:12:23.202Z,967.57
2017-06-21T04:13:23.201Z,967.56
2017-06-21T04:14:23.201Z,967.57
2017-06-21T04:15:23.201Z,967.56
2017-06-21T04:16:23.201Z,967.62
2017-06-21T04:17:23.202Z,967.56
2017-06-21T04:18:23.200Z,967.56
2017-06-21T04:19:23.200Z,967.57
2017-06-21T04:20:23.200Z,967.61
2017-06-21T04:21:23.200Z,967.6
2017-06-21T04:22:23.199Z,967.58
2017-06-21T04:23:23.200Z,967.62
2017-06-21T04:24:23.200Z,967.6
2017-06-21T04:25:23.201Z,967.63
2017-06-21T04:26:23.199Z,967.64
2017-06-21T04:27:23.201Z,967.64
2017-06-21T04:28:23.201Z,967.69
2017-06-21T04:29:23.200Z,967.69
2017-06-21T04:30:23.201Z,967.69
2017-06-21T04:31:23.200Z,967.68
2017-06-21T04:32:23.200Z,967.69
2017-06-21T04:33:23.200Z,967.71
2017-06-21T04:34:23.200Z,967.72
2017-06-21T04:35:23.201Z,967.73
2017-06-21T04:36:23.199Z,967.74
2017-06-21T04:37:23.200Z,967.75
2017-06-21T04:38:23.200Z,967.76
2017-06-21T04:39:23.202Z,967.77
2017-06-21T04:40:23.200Z,967.75
2017-06-21T04:41:23.202Z,967.75
2017-06-21T04:42:23.201Z,967.75
2017-06-21T04:43:23.202Z,967.76
2017-06-21T04:44:23.203Z,967.79
2017-06-21T04:45:23.205Z,967.75
2017-06-21T04:46:23.203Z,967.77
2017-06-21T04:47:23.206Z,967.77
2017-06-21T04:48:23.208Z,967.78
2017-06-21T04:49:23.208Z,967.76
2017-06-21T04:50:23.208Z,967.72
2017-06-21T04:51:23.209Z,967.72
2017-06-21T04:52:23.210Z,967.71
2017-06-21T04:53:23.211Z,967.76
2017-06-21T04:54:23.211Z,967.75
2017-06-21T04:55:23.211Z,967.71
2017-06-21T04:56:23.212Z,967.75
2017-06-21T04:57:23.214Z,967.75
2017-06-21T04:58:23.216Z,967.74
2017-06-21T04:59:23.216Z,967.73
2017-06-21T05:00:23.217Z,967.73
2017-06-21T05:01:23.220Z,967.7
2017-06-21T05:02:23.220Z,967.68
2017-06-21T05:03:23.221Z,967.67
2017-06-21T05:04:23.221Z,967.67
2017-06-21T05:05:23.227Z,967.68
2017-06-21T05:06:23.225Z,967.66
2017-06-21T05:07:23.227Z,967.68
2017-06-21T05:08:23.228Z,967.68
2017-06-21T05:09:23.231Z,967.7
2017-06-21T05:10:23.231Z,967.71
2017-06-21T05:11:23.234Z,967.7
2017-06-21T05:12:23.237Z,967.73
2017-06-21T05:13:23.236Z,967.73
2017-06-21T05:14:23.239Z,967.74
2017-06-21T05:15:23.240Z,967.78
2017-06-21T05:16:23.245Z,967.79
2017-06-21T05:17:23.243Z,967.81
2017-06-21T05:18:23.247Z,967.78
2017-06-21T05:19:23.249Z,967.79
2017-06-21T05:20:23.252Z,967.83
2017-06-21T05:21:23.253Z,967.83
2017-06-21T05:22:23.256Z,967.81
2017-06-21T05:23:23.259Z,967.8
2017-06-21T05:24:23.260Z,967.79
2017-06-21T05:25:23.261Z,967.81
2017-06-21T05:26:23.264Z,967.83
2017-06-21T05:27:23.268Z,967.85
2017-06-21T05:28:23.271Z,967.87
2017-06-21T05:29:23.273Z,967.87
2017-06-21T05:30:23.277Z,967.89
2017-06-21T05:31:23.280Z,967.94
2017-06-21T05:32:23.280Z,967.91
2017-06-21T05:33:23.284Z,967.93
2017-06-21T05:34:23.288Z,967.93
2017-06-21T05:35:23.290Z,967.91
2017-06-21T05:36:23.293Z,967.95
2017-06-21T05:37:23.297Z,967.95
2017-06-21T05:38:23.300Z,967.93
2017-06-21T05:39:23.303Z,967.93
2017-06-21T05:40:23.306Z,967.94
2017-06-21T05:41:23.311Z,967.96
2017-06-21T05:42:23.312Z,967.97
2017-06-21T05:43:23.315Z,967.97
2017-06-21T05:44:23.321Z,967.97
2017-06-21T05:45:23.324Z,967.96
2017-06-21T05:46:23.327Z,967.95
2017-06-21T05:47:23.328Z,967.95
2017-06-21T05:48:23.335Z,967.97
2017-06-21T05:49:23.337Z,967.98
2017-06-21T05:50:23.342Z,967.92
2017-06-21T05:51:23.346Z,967.94
2017-06-21T05:52:23.348Z,968
2017-06-21T05:53:23.355Z,967.95
2017-06-21T05:54:23.358Z,967.99
2017-06-21T05:55:23.362Z,967.98
2017-06-21T05:56:23.367Z,968.02
2017-06-21T05:57:23.369Z,968.01
2017-06-21T05:58:23.373Z,967.99
2017-06-21T05:59:23.377Z,967.97
2017-06-21T06:00:23.382Z,967.99
2017-06-21T06:01:23.387Z,968
2017-06-21T06:02:23.390Z,967.99
2017-06-21T06:03:23.394Z,968.02
2017-06-21T06:04:23.399Z,968.03
2017-06-21T06:05:23.402Z,968.03
2017-06-21T06:06:23.408Z,968.03
2017-06-21T06:07:23.412Z,968.06
2017-06-21T06:08:23.414Z,968.05
2017-06-21T06:09:23.421Z,968.03
2017-06-21T06:10:23.423Z,968.05
2017-06-21T06:11:23.432Z,968.03
2017-06-21T06:12:23.434Z,968.09
2017-06-21T06:13:23.438Z,968.05
2017-06-21T06:14:23.444Z,968.08
2017-06-21T06:15:23.446Z,968.09
2017-06-21T06:16:23.451Z,968.06
2017-06-21T06:17:23.456Z,968.05
2017-06-21T06:18:23.460Z,968.09
2017-06-21T06:19:23.464Z,968.05
2017-06-21T06:20:23.469Z,968.06
2017-06-21T06:21:23.474Z,968.04
2017-06-21T06:22:23.481Z,968.05
2017-06-21T06:23:23.483Z,968.01
2017-06-21T06:24:23.487Z,968.05
2017-06-21T06:25:23.493Z,968.07
2017-06-21T06:26:23.497Z,968.09
2017-06-21T06:27:23.501Z,968.1
2017-06-21T06:28:23.505Z,968.11
2017-06-21T06:29:23.511Z,968.1
2017-06-21T06:30:23.519Z,968.13
2017-06-21T06:31:23.520Z,968.13
2017-06-21T06:32:23.527Z,968.12
2017-06-21T06:33:23.529Z,968.16
2017-06-21T06:34:23.533Z,968.16
2017-06-21T06:35:23.538Z,968.14
2017-06-21T06:36:23.542Z,968.15
2017-06-21T06:37:23.547Z,968.13
2017-06-21T06:38:23.551Z,968.14
2017-06-21T06:39:23.557Z,968.15
2017-06-21T06:40:23.561Z,968.2
2017-06-21T06:41:23.566Z,968.2
2017-06-21T06:42:23.570Z,968.2
2017-06-21T06:43:23.575Z,968.21
2017-06-21T06:44:23.578Z,968.23
2017-06-21T06:45:23.581Z,968.2
2017-06-21T06:46:23.587Z,968.18
2017-06-21T06:47:23.591Z,968.18
2017-06-21T06:48:23.594Z,968.18
2017-06-21T06:49:23.599Z,968.16
2017-06-21T06:50:23.603Z,968.19
2017-06-21T06:51:23.608Z,968.2
2017-06-21T06:52:23.613Z,968.16
2017-06-21T06:53:23.618Z,968.19
2017-06-21T06:54:23.620Z,968.21
2017-06-21T06:55:23.625Z,968.24
2017-06-21T06:56:23.628Z,968.23
2017-06-21T06:57:23.632Z,968.23
2017-06-21T06:58:23.635Z,968.21
2017-06-21T06:59:23.673Z,968.16
2017-06-21T07:00:23.642Z,968.16
2017-06-21T07:01:23.647Z,968.17
2017-06-21T07:02:23.653Z,968.19
2017-06-21T07:03:23.655Z,968.15
2017-06-21T07:04:23.658Z,968.16
2017-06-21T07:05:23.662Z,968.16
2017-06-21T07:06:23.665Z,968.11
2017-06-21T07:07:23.669Z,968.06
2017-06-21T07:08:23.675Z,968.06
2017-06-21T07:09:23.677Z,968.05
2017-06-21T07:10:23.680Z,968.06
2017-06-21T07:11:23.717Z,968.05
2017-06-21T07:12:23.686Z,968.06
2017-06-21T07:13:23.690Z,968.06
2017-06-21T07:14:23.692Z,968.03
2017-06-21T07:15:23.698Z,968.1
2017-06-21T07:16:23.701Z,968.09
2017-06-21T07:17:23.704Z,968.06
2017-06-21T07:18:23.704Z,968.08
2017-06-21T07:19:23.710Z,968.07
2017-06-21T07:20:23.713Z,968.07
2017-06-21T07:21:23.715Z,968.09
2017-06-21T07:22:23.718Z,968.08
2017-06-21T07:23:23.724Z,968.03
2017-06-21T07:24:23.727Z,968.03
2017-06-21T07:25:23.727Z,968.08
2017-06-21T07:26:23.732Z,968.05
2017-06-21T07:27:23.734Z,968.04
2017-06-21T07:28:23.737Z,968.02
2017-06-21T07:29:23.739Z,968.03
2017-06-21T07:30:23.750Z,968.01
2017-06-21T07:31:23.748Z,968.01
2017-06-21T07:32:23.748Z,968.03
2017-06-21T07:33:23.752Z,968.04
2017-06-21T07:34:23.755Z,968
2017-06-21T07:35:23.759Z,968.02
2017-06-21T07:36:23.760Z,967.98
2017-06-21T07:37:23.764Z,967.97
2017-06-21T07:38:23.767Z,967.98
2017-06-21T07:39:23.777Z,967.96
2017-06-21T07:40:23.772Z,967.97
2017-06-21T07:41:23.776Z,967.96
2017-06-21T07:42:23.779Z,967.95
2017-06-21T07:43:23.780Z,967.93
2017-06-21T07:44:23.784Z,967.93
2017-06-21T07:45:23.788Z,967.95
2017-06-21T07:46:23.790Z,967.91
2017-06-21T07:47:23.793Z,967.88
2017-06-21T07:48:23.795Z,967.91
2017-06-21T07:49:23.799Z,967.89
2017-06-21T07:50:23.800Z,967.94
2017-06-21T07:51:23.803Z,967.91
2017-06-21T07:52:23.808Z,967.92
2017-06-21T07:53:23.810Z,967.92
2017-06-21T07:54:23.812Z,967.9
2017-06-21T07:55:23.814Z,967.91
2017-06-21T07:56:23.817Z,967.92
2017-06-21T07:57:23.821Z,967.94
2017-06-21T07:58:23.823Z,967.9
2017-06-21T07:59:23.826Z,967.93
2017-06-21T08:00:23.830Z,967.9
2017-06-21T08:01:23.831Z,967.88
2017-06-21T08:02:23.835Z,967.89
2017-06-21T08:03:23.838Z,967.88
2017-06-21T08:04:23.840Z,967.87
2017-06-21T08:05:23.844Z,967.9
2017-06-21T08:06:23.847Z,967.84
2017-06-21T08:07:23.849Z,967.85
2017-06-21T08:08:23.851Z,967.86
2017-06-21T08:09:23.854Z,967.83
2017-06-21T08:10:23.856Z,967.81
2017-06-21T08:11:23.859Z,967.8
2017-06-21T08:12:23.862Z,967.84
2017-06-21T08:13:23.866Z,967.82
2017-06-21T08:14:23.869Z,967.83
2017-06-21T08:15:23.875Z,967.86
2017-06-21T08:16:23.873Z,967.83
2017-06-21T08:17:23.874Z,967.83
2017-06-21T08:18:23.877Z,967.85
2017-06-21T08:19:23.882Z,967.78
2017-06-21T08:20:23.884Z,967.84
2017-06-21T08:21:23.886Z,967.78
2017-06-21T08:22:23.891Z,967.8
2017-06-21T08:23:23.889Z,967.77
2017-06-21T08:24:23.893Z,967.79
2017-06-21T08:25:23.895Z,967.79
2017-06-21T08:26:23.898Z,967.76
2017-06-21T08:27:23.901Z,967.78
2017-06-21T08:28:23.903Z,967.79
2017-06-21T08:29:23.907Z,967.82
2017-06-21T08:30:23.907Z,967.82
2017-06-21T08:31:23.910Z,967.82
2017-06-21T08:32:23.913Z,967.82
2017-06-21T08:33:23.914Z,967.81
2017-06-21T08:34:23.918Z,967.83
2017-06-21T08:35:23.920Z,967.85
2017-06-21T08:36:23.923Z,967.85
2017-06-21T08:37:23.925Z,967.85
2017-06-21T08:38:23.926Z,967.82
2017-06-21T08:39:23.929Z,967.86
2017-06-21T08:40:23.931Z,967.84
2017-06-21T08:41:23.934Z,967.85
2017-06-21T08:42:23.935Z,967.83
2017-06-21T08:43:23.938Z,967.81
2017-06-21T08:44:23.941Z,967.83
2017-06-21T08:45:23.942Z,967.85
2017-06-21T08:46:23.945Z,967.86
2017-06-21T08:47:23.947Z,967.86
2017-06-21T08:48:23.949Z,967.82
2017-06-21T08:49:23.951Z,967.81
2017-06-21T08:50:23.953Z,967.87
2017-06-21T08:51:23.957Z,967.81
2017-06-21T08:52:23.958Z,967.81
2017-06-21T08:53:23.959Z,967.78
2017-06-21T08:54:23.962Z,967.79
2017-06-21T08:55:23.966Z,967.77
2017-06-21T08:56:23.965Z,967.8
2017-06-21T08:57:23.969Z,967.81
2017-06-21T08:58:23.972Z,967.81
2017-06-21T08:59:23.974Z,967.83
2017-06-21T09:00:23.974Z,967.79
2017-06-21T09:01:23.977Z,967.79
2017-06-21T09:02:23.979Z,967.81
2017-06-21T09:03:23.980Z,967.79
2017-06-21T09:04:23.984Z,967.79
2017-06-21T09:05:23.986Z,967.78
2017-06-21T09:06:23.988Z,967.77
2017-06-21T09:07:23.990Z,967.82
2017-06-21T09:08:23.991Z,967.81
2017-06-21T09:09:23.995Z,967.81
2017-06-21T09:10:23.995Z,967.8
2017-06-21T09:11:23.997Z,967.84
2017-06-21T09:12:24.002Z,967.78
2017-06-21T09:13:24.003Z,967.83
2017-06-21T09:14:24.001Z,967.82
2017-06-21T09:15:24.005Z,967.82
2017-06-21T09:16:24.007Z,967.81
2017-06-21T09:17:24.010Z,967.81
2017-06-21T09:18:24.010Z,967.83
2017-06-21T09:19:24.013Z,967.83
2017-06-21T09:20:24.016Z,967.84
2017-06-21T09:21:24.017Z,967.83
2017-06-21T09:22:24.018Z,967.82
2017-06-21T09:23:24.022Z,967.8
2017-06-21T09:24:24.023Z,967.83
2017-06-21T09:25:24.023Z,967.82
2017-06-21T09:26:24.026Z,967.84
2017-06-21T09:27:24.028Z,967.8
2017-06-21T09:28:24.029Z,967.83
2017-06-21T09:29:24.030Z,967.87
2017-06-21T09:30:24.033Z,967.85
2017-06-21T09:31:24.037Z,967.89
2017-06-21T09:32:24.037Z,967.88
2017-06-21T09:33:24.037Z,967.89
2017-06-21T09:34:24.041Z,967.87
2017-06-21T09:35:24.043Z,967.88
2017-06-21T09:36:24.043Z,967.88
2017-06-21T09:37:24.044Z,967.92
2017-06-21T09:38:24.046Z,967.91
2017-06-21T09:39:24.049Z,967.94
2017-06-21T09:40:24.048Z,967.9
2017-06-21T09:41:24.052Z,967.96
2017-06-21T09:42:24.054Z,967.92
2017-06-21T09:43:24.055Z,967.91
2017-06-21T09:44:24.056Z,967.88
2017-06-21T09:45:24.058Z,967.93
2017-06-21T09:46:24.061Z,967.89
2017-06-21T09:47:24.059Z,967.88
2017-06-21T09:48:24.062Z,967.88
2017-06-21T09:49:24.063Z,967.87
2017-06-21T09:50:24.066Z,967.89
2017-06-21T09:51:24.069Z,967.89
2017-06-21T09:52:24.069Z,967.92
2017-06-21T09:53:24.071Z,967.91
2017-06-21T09:54:24.074Z,967.86
2017-06-21T09:55:24.073Z,967.84
2017-06-21T09:56:24.076Z,967.85
2017-06-21T09:57:24.076Z,967.86
2017-06-21T09:58:24.078Z,967.82
2017-06-21T09:59:24.080Z,967.86
2017-06-21T10:00:24.083Z,967.82
2017-06-21T10:01:24.085Z,967.85
2017-06-21T10:02:24.084Z,967.82
2017-06-21T10:03:24.086Z,967.86
2017-06-21T10:04:24.088Z,967.82
2017-06-21T10:05:24.090Z,967.82
2017-06-21T10:06:24.089Z,967.81
2017-06-21T10:07:24.090Z,967.79
2017-06-21T10:08:24.094Z,967.82
2017-06-21T10:09:24.095Z,967.78
2017-06-21T10:10:24.097Z,967.79
2017-06-21T10:11:24.098Z,967.74
2017-06-21T10:12:24.101Z,967.75
2017-06-21T10:13:24.102Z,967.75
2017-06-21T10:14:24.103Z,967.76
2017-06-21T10:15:24.104Z,967.75
2017-06-21T10:16:24.106Z,967.73
2017-06-21T10:17:24.107Z,967.74
2017-06-21T10:18:24.108Z,967.7
2017-06-21T10:19:24.110Z,967.72
2017-06-21T10:20:24.109Z,967.72
2017-06-21T10:21:24.112Z,967.75
2017-06-21T10:22:24.116Z,967.77
2017-06-21T10:23:24.117Z,967.74
2017-06-21T10:24:24.115Z,967.73
2017-06-21T10:25:24.119Z,967.75
2017-06-21T10:26:24.123Z,967.75
2017-06-21T10:27:24.123Z,967.75
2017-06-21T10:28:24.126Z,967.74
2017-06-21T10:29:24.126Z,967.76
2017-06-21T10:30:24.125Z,967.74
2017-06-21T10:31:24.126Z,967.76
2017-06-21T10:32:24.128Z,967.77
2017-06-21T10:33:24.131Z,967.77
2017-06-21T10:34:24.131Z,967.78
2017-06-21T10:35:24.133Z,967.77
2017-06-21T10:36:24.134Z,967.77
2017-06-21T10:37:24.136Z,967.78
2017-06-21T10:38:24.139Z,967.76
2017-06-21T10:39:24.141Z,967.71
2017-06-21T10:40:24.143Z,967.73
2017-06-21T10:41:24.143Z,967.73
2017-06-21T10:42:24.144Z,967.68
2017-06-21T10:43:24.145Z,967.7
2017-06-21T10:44:24.149Z,967.68
2017-06-21T10:45:24.180Z,967.67
2017-06-21T10:46:24.150Z,967.68
2017-06-21T10:47:24.152Z,967.66
2017-06-21T10:48:24.151Z,967.66
2017-06-21T10:49:24.154Z,967.63
2017-06-21T10:50:24.153Z,967.62
2017-06-21T10:51:24.158Z,967.65
2017-06-21T10:52:24.158Z,967.6
2017-06-21T10:53:24.159Z,967.61
2017-06-21T10:54:24.161Z,967.56
2017-06-21T10:55:24.163Z,967.53
2017-06-21T10:56:24.163Z,967.61
2017-06-21T10:57:24.165Z,967.55
2017-06-21T10:58:24.166Z,967.57
2017-06-21T10:59:24.168Z,967.54
2017-06-21T11:00:24.167Z,967.54
2017-06-21T11:01:24.170Z,967.56
2017-06-21T11:02:24.171Z,967.57
2017-06-21T11:03:24.173Z,967.53
2017-06-21T11:04:24.174Z,967.5
2017-06-21T11:05:24.175Z,967.48
2017-06-21T11:06:24.176Z,967.51
2017-06-21T11:07:24.179Z,967.48
2017-06-21T11:08:24.179Z,967.48
2017-06-21T11:09:24.180Z,967.48
2017-06-21T11:10:24.183Z,967.47
2017-06-21T11:11:24.183Z,967.47
2017-06-21T11:12:24.184Z,967.49
2017-06-21T11:13:24.186Z,967.51
2017-06-21T11:14:24.187Z,967.45
2017-06-21T11:15:24.190Z,967.43
2017-06-21T11:16:24.189Z,967.47
2017-06-21T11:17:24.192Z,967.43
2017-06-21T11:18:24.193Z,967.44
2017-06-21T11:19:24.195Z,967.42
2017-06-21T11:20:24.195Z,967.4
2017-06-21T11:21:24.196Z,967.37
2017-06-21T11:22:24.198Z,967.39
2017-06-21T11:23:24.199Z,967.39
2017-06-21T11:24:24.201Z,967.35
2017-06-21T11:25:24.202Z,967.34
2017-06-21T11:26:24.201Z,967.32
2017-06-21T11:27:24.202Z,967.29
2017-06-21T11:28:24.206Z,967.28
2017-06-21T11:29:24.208Z,967.24
2017-06-21T11:30:24.207Z,967.24
2017-06-21T11:31:24.209Z,967.19
2017-06-21T11:32:24.209Z,967.14
2017-06-21T11:33:24.211Z,967.13
2017-06-21T11:34:24.214Z,967.14
2017-06-21T11:35:24.214Z,967.11
2017-06-21T11:36:24.216Z,967.12
2017-06-21T11:37:24.219Z,967.07
2017-06-21T11:38:24.219Z,967.1
2017-06-21T11:39:24.220Z,967.05
2017-06-21T11:40:24.222Z,967.07
2017-06-21T11:41:24.225Z,967.06
2017-06-21T11:42:24.223Z,967.02
2017-06-21T11:43:24.225Z,967
2017-06-21T11:44:24.224Z,966.98
2017-06-21T11:45:24.226Z,966.93
2017-06-21T11:46:24.228Z,966.96
2017-06-21T11:47:24.228Z,966.95
2017-06-21T11:48:24.231Z,966.96
2017-06-21T11:49:24.232Z,966.93
2017-06-21T11:50:24.233Z,966.93
2017-06-21T11:51:24.235Z,966.9
2017-06-21T11:52:24.236Z,966.91
2017-06-21T11:53:24.237Z,966.92
2017-06-21T11:54:24.238Z,966.87
2017-06-21T11:55:24.238Z,966.85
2017-06-21T11:56:24.241Z,966.89
2017-06-21T11:57:24.242Z,966.83
2017-06-21T11:58:24.242Z,966.86
2017-06-21T11:59:24.245Z,966.81
2017-06-21T12:00:24.247Z,966.81
2017-06-21T12:01:24.248Z,966.85
2017-06-21T12:02:24.249Z,966.81
2017-06-21T12:03:24.248Z,966.84
2017-06-21T12:04:24.250Z,966.84
2017-06-21T12:05:24.254Z,966.86
2017-06-21T12:06:24.252Z,966.87
2017-06-21T12:07:24.253Z,966.87
2017-06-21T12:08:24.255Z,966.88
2017-06-21T12:09:24.257Z,966.85
2017-06-21T12:10:24.257Z,966.88
2017-06-21T12:11:24.259Z,966.88
2017-06-21T12:12:24.261Z,966.89
2017-06-21T12:13:24.262Z,966.88
2017-06-21T12:14:24.263Z,966.88
2017-06-21T12:15:24.267Z,966.9
2017-06-21T12:16:24.267Z,966.88
2017-06-21T12:17:24.266Z,966.83
2017-06-21T12:18:24.268Z,966.79
2017-06-21T12:19:24.269Z,966.8
2017-06-21T12:20:24.271Z,966.82
2017-06-21T12:21:24.271Z,966.78
2017-06-21T12:22:24.271Z,966.8
2017-06-21T12:23:24.275Z,966.79
2017-06-21T12:24:24.277Z,966.78
2017-06-21T12:25:24.276Z,966.79
2017-06-21T12:26:24.278Z,966.74
2017-06-21T12:27:24.278Z,966.8
2017-06-21T12:28:24.279Z,966.73
2017-06-21T12:29:24.282Z,966.77
2017-06-21T12:30:24.282Z,966.72
2017-06-21T12:31:24.285Z,966.74